Iblea — IBFK — position and weather

sailwx.info

Track history (hours):
 
Tides and Currents Weather Stations Pressure Air Temp Water Temp Dewpoint Dewpoint Depression Visibility Wind Speed Wind Dir Waves Ship Positions

Iblea

Last reported at 2016-Apr-29 02:23 UTC. Time now 2016-Apr-30 03:25 UTC.
Position N 40°37' E 027°13'.

Length 176 m; draft 7.5 m.

Type: Ship (hazmat cat B). MMSI: 247087700.

Date/timePositionNaut miles runAvg speedWind from/ knotsBaromVisibWave heightAir tempDewpointWater temp
2016-Apr-29 02:23N 40°37' E 027°13'6711.3
2016-Apr-28 20:29N 40°46' E 028°40'1111.8
2016-Apr-28 19:32N 40°54' E 028°50'7 6.8
2016-Apr-28 18:31N 40°58' E 028°58'  
2016-Apr-25 05:12N 44°53' E 036°38'0 0.1
2016-Apr-25 04:33N 44°53' E 036°38'0 0.0
2016-Apr-25 03:33N 44°53' E 036°38'0 0.0
2016-Apr-25 02:33N 44°53' E 036°38'0 0.1
2016-Apr-25 01:21N 44°53' E 036°38'0 0.0
2016-Apr-24 23:32N 44°53' E 036°38'1 0.4
2016-Apr-24 19:32N 44°53' E 036°40'0 0.1
2016-Apr-24 18:26N 44°53' E 036°40'0 0.1
2016-Apr-24 16:33N 44°53' E 036°40'13 9.6
2016-Apr-24 15:10N 44°40' E 036°38'813.4
2016-Apr-24 14:33N 44°32' E 036°35'1313.3
2016-Apr-24 13:34N 44°19' E 036°32'1212.1
2016-Apr-24 12:33N 44°10' E 036°20'1313.0
2016-Apr-24 11:33N 44°04' E 036°04'5313.2
2016-Apr-24 07:33N 43°38' E 034°60'1313.0
2016-Apr-24 06:33N 43°32' E 034°44'1312.9
2016-Apr-24 05:33N 43°27' E 034°28'1212.5
2016-Apr-24 04:33N 43°20' E 034°13'1412.8
2016-Apr-24 03:28N 43°13' E 033°57'25712.3
2016-Apr-23 06:32N 41°01' E 028°60'6 6.0
2016-Apr-23 05:33N 40°55' E 028°57'4 0.6
2016-Apr-22 23:18N 40°57' E 028°52'0 0.0
2016-Apr-22 21:18N 40°57' E 028°52'0 0.0
2016-Apr-22 05:30N 40°57' E 028°52'0 0.1
2016-Apr-22 03:33N 40°57' E 028°52'9 8.5
2016-Apr-22 02:33N 40°49' E 028°48'267 6.2
2016-Apr-20 07:26N 37°51' E 024°30'2712.9
2016-Apr-20 05:23N 37°32' E 024°07'1113.2
2016-Apr-20 04:33N 37°22' E 024°00'1313.2
2016-Apr-20 03:33N 37°11' E 023°52'1413.5
2016-Apr-20 02:33N 36°60' E 023°43'1313.3
2016-Apr-20 01:33N 36°48' E 023°34'1313.1
2016-Apr-20 00:33N 36°37' E 023°26'1313.1
2016-Apr-19 23:33N 36°26' E 023°18'16812.9
2016-Apr-19 10:33N 36°10' E 019°50'  
Track history (hours):
 
Tides and Currents Weather Stations Pressure Air Temp Water Temp Dewpoint Dewpoint Depression Visibility Wind Speed Wind Dir Waves Ship Positions

Iblea

Last reported at 2016-Apr-29 02:23 UTC. Time now 2016-Apr-30 03:25 UTC.
Position N 40°37' E 027°13'.

Length 176 m; draft 7.5 m.

Type: Ship (hazmat cat B). MMSI: 247087700.

Date/timePositionNaut miles runAvg speedWind from/ knotsBaromVisibWave heightAir tempDewpointWater temp
2016-Apr-29 02:23N 40°37' E 027°13'6711.3
2016-Apr-28 20:29N 40°46' E 028°40'1111.8
2016-Apr-28 19:32N 40°54' E 028°50'7 6.8
2016-Apr-28 18:31N 40°58' E 028°58'  
2016-Apr-25 05:12N 44°53' E 036°38'0 0.1
2016-Apr-25 04:33N 44°53' E 036°38'0 0.0
2016-Apr-25 03:33N 44°53' E 036°38'0 0.0
2016-Apr-25 02:33N 44°53' E 036°38'0 0.1
2016-Apr-25 01:21N 44°53' E 036°38'0 0.0
2016-Apr-24 23:32N 44°53' E 036°38'1 0.4
2016-Apr-24 19:32N 44°53' E 036°40'0 0.1
2016-Apr-24 18:26N 44°53' E 036°40'0 0.1
2016-Apr-24 16:33N 44°53' E 036°40'13 9.6
2016-Apr-24 15:10N 44°40' E 036°38'813.4
2016-Apr-24 14:33N 44°32' E 036°35'1313.3
2016-Apr-24 13:34N 44°19' E 036°32'1212.1
2016-Apr-24 12:33N 44°10' E 036°20'1313.0
2016-Apr-24 11:33N 44°04' E 036°04'5313.2
2016-Apr-24 07:33N 43°38' E 034°60'1313.0
2016-Apr-24 06:33N 43°32' E 034°44'1312.9
2016-Apr-24 05:33N 43°27' E 034°28'1212.5
2016-Apr-24 04:33N 43°20' E 034°13'1412.8
2016-Apr-24 03:28N 43°13' E 033°57'25712.3
2016-Apr-23 06:32N 41°01' E 028°60'6 6.0
2016-Apr-23 05:33N 40°55' E 028°57'4 0.6
2016-Apr-22 23:18N 40°57' E 028°52'0 0.0
2016-Apr-22 21:18N 40°57' E 028°52'0 0.0
2016-Apr-22 05:30N 40°57' E 028°52'0 0.1
2016-Apr-22 03:33N 40°57' E 028°52'9 8.5
2016-Apr-22 02:33N 40°49' E 028°48'267 6.2
2016-Apr-20 07:26N 37°51' E 024°30'2712.9
2016-Apr-20 05:23N 37°32' E 024°07'1113.2
2016-Apr-20 04:33N 37°22' E 024°00'1313.2
2016-Apr-20 03:33N 37°11' E 023°52'1413.5
2016-Apr-20 02:33N 36°60' E 023°43'1313.3
2016-Apr-20 01:33N 36°48' E 023°34'1313.1
2016-Apr-20 00:33N 36°37' E 023°26'1313.1
2016-Apr-19 23:33N 36°26' E 023°18'16812.9
2016-Apr-19 10:33N 36°10' E 019°50'  

Dump ship's entire track history